Time;durP1;ratioP1;P1;durP2;ratioP2;P2;SDS_P1;SDS_P2;PMS_P1;PMS_P2;Temp;Humidity;BMP_temperature;BMP_pressure;BME280_temperature;BME280_humidity;BME280_pressure;Samples;Min_cycle;Max_cycle;Signal;HPM_P1;HPM_P2
2022/01/12 00:01:14;;;;;;;136.30;40.83;;;4.50;99.90;;;;;;5095640;28;20055;-74
2022/01/12 00:03:42;;;;;;;120.53;37.92;;;4.50;99.90;;;;;;5077581;28;20056;-73
2022/01/12 00:06:08;;;;;;;136.88;42.15;;;4.50;99.90;;;;;;5095094;28;20070;-73
2022/01/12 00:08:34;;;;;;;124.37;39.43;;;4.50;99.90;;;;;;5094124;28;20487;-73
2022/01/12 00:11:03;;;;;;;148.32;43.70;;;4.50;99.90;;;;;;5095061;28;20048;-74
2022/01/12 00:13:29;;;;;;;129.68;38.80;;;4.50;99.90;;;;;;5095254;28;20458;-73
2022/01/12 00:15:55;;;;;;;137.97;42.97;;;4.50;99.90;;;;;;5094919;28;20139;-73
2022/01/12 00:18:22;;;;;;;117.00;38.25;;;4.50;99.90;;;;;;5095145;28;20332;-74
2022/01/12 00:20:51;;;;;;;145.75;43.03;;;4.50;99.90;;;;;;5095077;28;20070;-77
2022/01/12 00:23:18;;;;;;;168.43;44.00;;;4.50;99.90;;;;;;5094637;28;20601;-74
2022/01/12 00:26:08;;;;;;;152.18;41.92;;;4.60;99.90;;;;;;5094981;28;20400;-73
2022/01/12 00:34:03;;;;;;;152.38;43.17;;;4.50;99.90;;;;;;5094603;28;20086;-74
2022/01/12 00:36:31;;;;;;;145.95;40.28;;;4.60;99.90;;;;;;5094784;28;20044;-74
2022/01/12 00:38:57;;;;;;;146.25;40.95;;;4.60;99.90;;;;;;5094363;28;20048;-74
2022/01/12 00:41:23;;;;;;;137.45;40.85;;;4.60;99.90;;;;;;5094525;28;20087;-74
2022/01/12 00:43:56;;;;;;;140.23;40.67;;;4.60;99.90;;;;;;5094596;28;20126;-74
2022/01/12 00:46:22;;;;;;;170.90;42.65;;;4.50;99.90;;;;;;5093782;28;20438;-74
2022/01/12 00:48:48;;;;;;;153.27;42.78;;;4.60;99.90;;;;;;5094589;28;20056;-74
2022/01/12 00:51:14;;;;;;;175.20;42.25;;;4.60;99.90;;;;;;5094176;28;20050;-74
2022/01/12 00:53:40;;;;;;;175.17;42.43;;;4.60;99.90;;;;;;5093439;28;20040;-74
2022/01/12 00:56:06;;;;;;;173.03;40.63;;;4.60;99.90;;;;;;5093079;28;20479;-74
2022/01/12 00:58:34;;;;;;;181.63;43.80;;;4.60;99.90;;;;;;5094548;28;20080;-74
2022/01/12 01:00:59;;;;;;;193.65;44.55;;;4.60;99.90;;;;;;5093948;28;20044;-74
2022/01/12 01:03:25;;;;;;;166.77;41.97;;;4.60;99.90;;;;;;5094171;28;20490;-74
2022/01/12 01:05:51;;;;;;;229.43;46.97;;;4.60;99.90;;;;;;5093225;28;20059;-74
2022/01/12 01:08:17;;;;;;;193.73;43.67;;;4.60;99.90;;;;;;5093881;28;20098;-74
2022/01/12 01:13:09;;;;;;;188.03;42.00;;;4.50;99.90;;;;;;5094018;28;20058;-74
2022/01/12 01:16:01;;;;;;;170.63;40.47;;;4.60;99.90;;;;;;5093920;28;20079;-74
2022/01/12 01:26:41;;;;;;;199.45;43.08;;;4.60;99.90;;;;;;5093542;28;20476;-74
2022/01/12 01:29:08;;;;;;;138.57;36.17;;;4.70;99.90;;;;;;5093114;28;20040;-74
2022/01/12 01:31:35;;;;;;;191.00;40.78;;;4.70;99.90;;;;;;5093739;28;20056;-74
2022/01/12 01:34:11;;;;;;;151.57;38.30;;;4.70;99.90;;;;;;5092181;28;20048;-75
2022/01/12 01:36:41;;;;;;;139.70;39.90;;;4.60;99.90;;;;;;5093846;28;20101;-74
2022/01/12 01:39:10;;;;;;;134.88;36.03;;;4.70;99.90;;;;;;5092802;28;20048;-74
2022/01/12 01:41:38;;;;;;;245.25;45.42;;;4.70;99.90;;;;;;5092223;28;20127;-74
2022/01/12 01:54:53;;;;;;;147.75;39.40;;;4.70;99.90;;;;;;5093455;28;20113;-74
2022/01/12 01:57:19;;;;;;;136.63;38.23;;;4.70;99.90;;;;;;5093031;28;20052;-74
2022/01/12 01:59:45;;;;;;;179.65;39.88;;;4.70;99.90;;;;;;5093216;28;20311;-74
2022/01/12 02:02:12;;;;;;;120.77;34.97;;;4.70;99.90;;;;;;5092822;28;20040;-74
2022/01/12 02:04:38;;;;;;;129.93;38.67;;;4.70;99.90;;;;;;5093154;28;20131;-74
2022/01/12 02:07:04;;;;;;;136.07;38.92;;;4.70;99.90;;;;;;5092850;28;20047;-74
2022/01/12 02:09:30;;;;;;;119.97;37.37;;;4.70;99.90;;;;;;5093098;28;20113;-74
2022/01/12 02:11:56;;;;;;;130.88;39.72;;;4.70;99.90;;;;;;5093105;28;20040;-74
2022/01/12 02:14:21;;;;;;;116.83;36.73;;;4.70;99.90;;;;;;5092786;28;20151;-74
2022/01/12 02:16:53;;;;;;;127.23;37.77;;;4.80;99.90;;;;;;5093106;28;20048;-74
2022/01/12 02:35:53;;;;;;;209.80;40.42;;;4.70;99.90;;;;;;5092978;28;20188;-74
2022/01/12 02:41:04;;;;;;;191.73;40.33;;;4.60;99.90;;;;;;5093092;28;20087;-74
2022/01/12 02:51:35;;;;;;;363.13;43.83;;;4.50;99.90;;;;;;5096072;28;20087;-74
2022/01/12 02:54:03;;;;;;;275.95;41.88;;;4.50;99.90;;;;;;5095693;28;20044;-74
2022/01/12 02:56:33;;;;;;;192.35;38.58;;;4.50;99.90;;;;;;5096347;28;20458;-74
2022/01/12 02:59:00;;;;;;;211.18;38.42;;;4.50;99.90;;;;;;5096637;28;20123;-74
2022/01/12 03:04:06;;;;;;;330.10;45.03;;;4.60;99.90;;;;;;5096732;28;20054;-74
2022/01/12 03:06:36;;;;;;;175.95;36.13;;;4.50;99.90;;;;;;5096228;28;20055;-74
2022/01/12 03:09:04;;;;;;;265.50;41.53;;;4.50;99.90;;;;;;5095715;28;20052;-74
2022/01/12 03:11:31;;;;;;;119.80;33.47;;;4.60;99.90;;;;;;5094988;28;20099;-74
2022/01/12 03:13:57;;;;;;;125.95;34.67;;;4.60;99.90;;;;;;5096612;28;20059;-74
2022/01/12 03:16:25;;;;;;;101.47;31.75;;;4.60;99.90;;;;;;5095954;28;20044;-74
2022/01/12 03:18:54;;;;;;;92.20;29.95;;;4.60;99.90;;;;;;5096264;28;20044;-74
2022/01/12 03:21:23;;;;;;;65.93;25.85;;;4.60;99.90;;;;;;5095763;28;20044;-74
2022/01/12 03:23:50;;;;;;;94.07;29.15;;;4.50;99.90;;;;;;5096189;28;20052;-74
2022/01/12 03:26:16;;;;;;;67.35;25.98;;;4.50;99.90;;;;;;5095596;28;20060;-74
2022/01/12 03:28:43;;;;;;;56.63;24.00;;;4.50;99.90;;;;;;5096146;28;20048;-74
2022/01/12 03:31:18;;;;;;;116.10;29.27;;;4.40;99.90;;;;;;5096050;28;20463;-74
2022/01/12 03:38:57;;;;;;;68.15;25.15;;;4.20;99.90;;;;;;5096155;28;20106;-74
2022/01/12 03:41:26;;;;;;;84.43;26.38;;;4.10;99.90;;;;;;5095547;28;20044;-74
2022/01/12 03:43:52;;;;;;;47.05;20.85;;;4.10;99.90;;;;;;5095806;28;20089;-74
2022/01/12 03:46:24;;;;;;;74.53;24.48;;;4.10;99.90;;;;;;5095486;28;20051;-74
2022/01/12 03:48:49;;;;;;;83.38;24.50;;;4.10;99.90;;;;;;5095787;28;20054;-74
2022/01/12 03:51:15;;;;;;;72.53;24.17;;;4.00;99.90;;;;;;5095552;28;20048;-76
2022/01/12 03:53:41;;;;;;;68.37;22.93;;;3.90;99.90;;;;;;5094527;28;20044;-74
2022/01/12 03:56:07;;;;;;;49.53;21.05;;;4.00;99.90;;;;;;5094116;28;20503;-74
2022/01/12 03:58:32;;;;;;;71.60;23.97;;;3.90;99.90;;;;;;5095283;28;20131;-74
2022/01/12 04:00:58;;;;;;;54.60;20.73;;;3.90;99.90;;;;;;5094733;28;20044;-74
2022/01/12 04:03:26;;;;;;;51.13;21.10;;;3.90;99.90;;;;;;5095115;28;20040;-74
2022/01/12 04:08:35;;;;;;;45.80;19.45;;;3.80;99.90;;;;;;5095142;28;20131;-74
2022/01/12 04:11:01;;;;;;;56.33;20.97;;;3.70;99.90;;;;;;5094546;28;20131;-74
2022/01/12 04:13:29;;;;;;;50.33;20.03;;;3.70;99.90;;;;;;5093752;28;20083;-74
2022/01/12 04:16:01;;;;;;;51.03;19.13;;;3.60;99.90;;;;;;5095219;28;20048;-74
2022/01/12 04:18:27;;;;;;;66.95;22.77;;;3.60;99.90;;;;;;5094961;28;20051;-74
2022/01/12 04:20:52;;;;;;;46.40;20.17;;;3.60;99.90;;;;;;5095117;28;20043;-74
2022/01/12 04:23:21;;;;;;;45.90;19.30;;;3.60;99.90;;;;;;5095011;28;20367;-73
2022/01/12 04:25:50;;;;;;;37.20;17.65;;;3.60;99.90;;;;;;5095340;28;20070;-74
2022/01/12 04:28:18;;;;;;;42.25;17.52;;;3.60;99.90;;;;;;5094555;28;20075;-74
2022/01/12 04:30:44;;;;;;;109.78;22.23;;;3.50;99.90;;;;;;5093334;28;20113;-74
2022/01/12 04:33:10;;;;;;;175.30;24.35;;;;;;;;;;5094921;28;20051;-74
2022/01/12 04:35:45;;;;;;;94.80;20.40;;;3.50;99.90;;;;;;5094099;28;20523;-74
2022/01/12 04:38:11;;;;;;;87.60;20.00;;;3.40;99.90;;;;;;5094852;28;20075;-74
2022/01/12 04:40:37;;;;;;;86.93;19.67;;;3.30;99.90;;;;;;5094385;28;20055;-74
2022/01/12 04:43:03;;;;;;;179.63;24.43;;;;;;;;;;5094572;28;20040;-74
2022/01/12 04:45:39;;;;;;;108.40;20.27;;;;;;;;;;5094240;28;20411;-74
2022/01/12 04:48:32;;;;;;;169.23;19.40;;;;;;;;;;5094563;28;20052;-73
2022/01/12 04:50:56;;;;;;;148.85;17.63;;;3.30;99.90;;;;;;5094308;28;20511;-74
2022/01/12 04:53:22;;;;;;;158.05;16.38;;;3.40;99.90;;;;;;5094447;28;20040;-73
2022/01/12 04:55:50;;;;;;;128.00;14.60;;;3.60;99.90;;;;;;5094248;28;20084;-74
2022/01/12 04:58:16;;;;;;;157.80;15.05;;;3.50;99.90;;;;;;5094311;28;20048;-74
2022/01/12 05:00:44;;;;;;;170.73;16.15;;;3.50;99.90;;;;;;5093887;28;20055;-74
2022/01/12 05:13:57;;;;;;;118.03;11.23;;;3.30;99.90;;;;;;5093300;28;20502;-74
2022/01/12 05:16:23;;;;;;;102.18;12.13;;;3.20;99.90;;;;;;5094013;28;20047;-74
2022/01/12 05:18:51;;;;;;;80.70;8.90;;;3.10;99.90;;;;;;5093674;28;20399;-74
2022/01/12 05:21:18;;;;;;;58.70;9.25;;;3.10;99.90;;;;;;5094042;28;20134;-74
2022/01/12 05:23:44;;;;;;;65.43;9.18;;;3.10;99.90;;;;;;5093593;28;20411;-74
2022/01/12 05:26:10;;;;;;;67.22;10.43;;;3.10;99.90;;;;;;5092519;28;20458;-74
2022/01/12 05:28:38;;;;;;;80.88;8.88;;;3.00;99.90;;;;;;5093089;28;20060;-74
2022/01/12 05:31:05;;;;;;;56.40;9.18;;;3.00;99.90;;;;;;5093736;28;20055;-74
2022/01/12 05:33:32;;;;;;;51.78;9.00;;;2.90;99.90;;;;;;5092307;28;20123;-74
2022/01/12 05:35:59;;;;;;;68.47;8.15;;;3.00;99.90;;;;;;5093642;28;20123;-74
2022/01/12 05:38:26;;;;;;;69.93;10.75;;;3.00;99.90;;;;;;5093622;28;20051;-74
2022/01/12 05:40:55;;;;;;;59.10;9.13;;;2.90;99.90;;;;;;5092119;28;20052;-74
2022/01/12 05:43:25;;;;;;;53.50;9.25;;;2.90;99.90;;;;;;5092199;28;20083;-74
2022/01/12 05:45:53;;;;;;;70.25;9.43;;;2.90;99.90;;;;;;5092256;28;20134;-74
2022/01/12 05:50:49;;;;;;;55.17;7.70;;;2.90;99.90;;;;;;5092762;28;20458;-74
2022/01/12 05:53:17;;;;;;;81.05;10.32;;;3.00;99.90;;;;;;5093346;28;20101;-74
2022/01/12 05:55:43;;;;;;;69.00;8.07;;;3.00;99.90;;;;;;5093050;28;20067;-74
2022/01/12 05:58:09;;;;;;;68.75;8.88;;;2.90;99.90;;;;;;5093349;28;20055;-74
2022/01/12 06:00:35;;;;;;;61.97;7.10;;;2.90;99.90;;;;;;5092894;28;20040;-74
2022/01/12 06:03:01;;;;;;;41.45;7.43;;;2.90;99.90;;;;;;5093468;28;20638;-77
2022/01/12 06:05:28;;;;;;;60.53;7.33;;;2.90;99.90;;;;;;5075364;28;20054;-74
2022/01/12 06:07:54;;;;;;;73.97;7.32;;;2.90;99.90;;;;;;5092784;28;20529;-74
2022/01/12 06:10:23;;;;;;;52.15;5.63;;;2.80;99.90;;;;;;5093233;28;20048;-76
2022/01/12 06:12:50;;;;;;;49.33;6.28;;;2.90;99.90;;;;;;5092724;28;20051;-73
2022/01/12 06:15:16;;;;;;;45.15;6.43;;;2.90;99.90;;;;;;5092987;28;20094;-74
2022/01/12 06:17:42;;;;;;;38.20;6.30;;;2.90;99.90;;;;;;5092722;28;20084;-74
2022/01/12 06:20:08;;;;;;;24.15;5.82;;;2.90;99.90;;;;;;5093094;28;20123;-74
2022/01/12 06:22:35;;;;;;;21.73;4.17;;;2.90;99.90;;;;;;5091729;28;20445;-76
2022/01/12 06:25:04;;;;;;;19.58;4.82;;;3.00;99.90;;;;;;5097753;28;20281;-74
2022/01/12 06:27:31;;;;;;;35.72;5.03;;;3.00;99.90;;;;;;5099334;28;20067;-74
2022/01/12 06:32:41;;;;;;;42.22;4.82;;;3.00;99.90;;;;;;5099427;28;20051;-75
2022/01/12 06:35:07;;;;;;;69.67;7.07;;;3.00;99.90;;;;;;5098768;28;20404;-75
2022/01/12 06:37:33;;;;;;;62.63;6.70;;;3.00;99.90;;;;;;5099606;28;20046;-76
2022/01/12 06:39:59;;;;;;;51.23;6.63;;;2.90;99.90;;;;;;5099343;28;20040;-75
2022/01/12 06:42:27;;;;;;;46.13;6.20;;;2.90;99.90;;;;;;5099611;28;20460;-75
2022/01/12 06:44:53;;;;;;;50.78;6.43;;;3.00;99.90;;;;;;5099225;28;20048;-75
2022/01/12 06:47:19;;;;;;;35.57;5.93;;;2.90;99.90;;;;;;5098495;28;20123;-75
2022/01/12 06:49:45;;;;;;;33.33;5.85;;;2.90;99.90;;;;;;5099219;28;20048;-75
2022/01/12 06:52:11;;;;;;;35.90;5.90;;;2.80;99.90;;;;;;5099600;28;20563;-75
2022/01/12 06:54:36;;;;;;;83.03;7.73;;;2.80;99.90;;;;;;5099428;28;20051;-75
2022/01/12 06:57:02;;;;;;;65.47;6.70;;;2.80;99.90;;;;;;5099090;28;20076;-75
2022/01/12 06:59:28;;;;;;;83.55;6.78;;;2.90;99.90;;;;;;5098236;28;20135;-75
2022/01/12 07:01:54;;;;;;;72.67;6.93;;;2.90;99.90;;;;;;5098084;28;20123;-75
2022/01/12 07:04:20;;;;;;;151.23;8.67;;;2.80;99.90;;;;;;5098284;28;20044;-75
2022/01/12 07:06:46;;;;;;;112.50;7.93;;;2.90;99.90;;;;;;5099094;28;20086;-76
2022/01/12 07:09:12;;;;;;;74.32;6.95;;;2.90;99.90;;;;;;5099300;28;20362;-75
2022/01/12 07:11:38;;;;;;;98.93;7.13;;;2.90;99.90;;;;;;5099376;28;20496;-75
2022/01/12 07:14:04;;;;;;;111.53;7.68;;;2.90;99.90;;;;;;5097841;28;20044;-75
2022/01/12 07:16:30;;;;;;;96.53;6.77;;;2.90;99.90;;;;;;5099770;28;20177;-75
2022/01/12 07:18:59;;;;;;;89.22;6.57;;;2.90;99.90;;;;;;5099095;28;20047;-75
2022/01/12 07:21:25;;;;;;;73.53;5.57;;;2.90;99.90;;;;;;5099161;28;20083;-75
2022/01/12 07:23:54;;;;;;;71.75;5.90;;;2.90;99.90;;;;;;5098971;28;20399;-75
2022/01/12 07:26:21;;;;;;;87.93;5.53;;;2.90;99.90;;;;;;5099020;28;20052;-74
2022/01/12 07:28:48;;;;;;;68.20;5.68;;;2.90;99.90;;;;;;5098767;28;20060;-75
2022/01/12 07:31:14;;;;;;;66.60;5.30;;;2.90;99.90;;;;;;5098091;28;20048;-75
2022/01/12 07:33:39;;;;;;;51.83;5.03;;;2.90;99.90;;;;;;5099147;28;20557;-75
2022/01/12 07:36:05;;;;;;;70.07;6.60;;;2.90;99.90;;;;;;5078592;28;20040;-75
2022/01/12 07:38:31;;;;;;;52.50;5.40;;;2.90;99.90;;;;;;5096060;28;20044;-75
2022/01/12 07:40:57;;;;;;;78.43;6.80;;;2.90;99.90;;;;;;5095657;28;20417;-75
2022/01/12 07:43:22;;;;;;;64.10;6.37;;;2.90;99.90;;;;;;5096026;28;20052;-75
2022/01/12 07:45:48;;;;;;;53.13;5.37;;;2.90;99.90;;;;;;5095581;28;20044;-75
2022/01/12 07:48:14;;;;;;;69.30;7.90;;;2.90;99.90;;;;;;5095831;28;20051;-75
2022/01/12 07:50:41;;;;;;;61.50;7.10;;;2.90;99.90;;;;;;5095740;28;20092;-75
2022/01/12 07:53:07;;;;;;;46.90;6.85;;;2.90;99.90;;;;;;5095397;28;20369;-75
2022/01/12 07:55:32;;;;;;;57.50;7.00;;;2.90;99.90;;;;;;5095653;28;20452;-75
2022/01/12 07:57:59;;;;;;;77.73;8.37;;;2.90;99.90;;;;;;5095587;28;20067;-75
2022/01/12 08:00:25;;;;;;;55.67;7.20;;;2.90;99.90;;;;;;5095765;28;20044;-75
2022/01/12 08:02:51;;;;;;;61.03;8.27;;;3.00;99.90;;;;;;5095168;28;20047;-75
2022/01/12 08:05:18;;;;;;;84.63;10.87;;;3.00;99.90;;;;;;5094408;28;20040;-75
2022/01/12 08:07:44;;;;;;;67.10;7.97;;;3.00;99.90;;;;;;5095635;28;20048;-75
2022/01/12 08:10:11;;;;;;;49.58;7.82;;;3.00;99.90;;;;;;5095041;28;20048;-75
2022/01/12 08:12:37;;;;;;;60.80;8.10;;;3.00;99.90;;;;;;5095414;28;20044;-75
2022/01/12 08:15:05;;;;;;;47.38;8.45;;;3.00;99.90;;;;;;5094937;28;20052;-75
2022/01/12 08:17:32;;;;;;;49.72;8.05;;;3.00;99.90;;;;;;5095463;28;20047;-74
2022/01/12 08:19:58;;;;;;;57.17;7.75;;;3.10;99.90;;;;;;5093446;28;20462;-75
2022/01/12 08:22:24;;;;;;;51.95;7.00;;;3.10;99.90;;;;;;5095085;28;20054;-74
2022/01/12 08:24:50;;;;;;;51.40;8.00;;;3.00;99.90;;;;;;5094848;28;20391;-78
2022/01/12 08:27:16;;;;;;;65.03;7.80;;;3.10;99.90;;;;;;5095168;28;20048;-75
2022/01/12 08:29:42;;;;;;;61.97;7.50;;;3.10;99.90;;;;;;5094984;28;20051;-74
2022/01/12 08:32:08;;;;;;;81.80;8.10;;;3.20;99.90;;;;;;5093638;28;20048;-75
2022/01/12 08:34:33;;;;;;;62.97;7.97;;;3.20;99.90;;;;;;5094983;28;20177;-75
2022/01/12 08:36:59;;;;;;;99.60;8.37;;;3.20;99.90;;;;;;5094561;28;20151;-75
2022/01/12 08:39:25;;;;;;;65.57;6.60;;;3.20;99.90;;;;;;5093702;28;20054;-75
2022/01/12 08:41:51;;;;;;;60.27;7.40;;;3.30;99.90;;;;;;5094849;28;20036;-74
2022/01/12 08:44:17;;;;;;;135.93;9.48;;;3.30;99.90;;;;;;5094587;28;20048;-74
2022/01/12 08:46:42;;;;;;;85.43;8.37;;;3.30;99.90;;;;;;5094395;28;20047;-75
2022/01/12 08:49:08;;;;;;;60.50;7.80;;;3.40;99.90;;;;;;5093457;28;20475;-75
2022/01/12 08:51:35;;;;;;;89.37;8.47;;;3.40;99.90;;;;;;5094564;28;20055;-75
2022/01/12 08:54:00;;;;;;;138.52;9.15;;;3.40;99.90;;;;;;5094202;28;20040;-75
2022/01/12 08:56:26;;;;;;;54.67;7.60;;;3.50;99.90;;;;;;5094442;28;20059;-75
2022/01/12 08:58:52;;;;;;;71.10;7.90;;;3.50;99.90;;;;;;5093348;28;20044;-75
2022/01/12 09:01:18;;;;;;;126.77;10.27;;;3.50;99.90;;;;;;5092680;28;20043;-74
2022/01/12 09:03:44;;;;;;;67.97;7.80;;;3.60;99.90;;;;;;5094317;28;20047;-73
2022/01/12 09:06:10;;;;;;;48.30;6.55;;;3.50;99.90;;;;;;5094343;28;20116;-73
2022/01/12 09:08:38;;;;;;;44.95;6.63;;;3.60;99.90;;;;;;5094483;28;20101;-73
2022/01/12 09:11:04;;;;;;;76.93;7.10;;;3.80;99.90;;;;;;5092847;28;20079;-74
2022/01/12 09:13:31;;;;;;;60.28;6.45;;;;;;;;;;5094139;28;20044;-73
2022/01/12 09:15:57;;;;;;;51.08;6.47;;;;;;;;;;5093892;28;20103;-75
2022/01/12 09:18:23;;;;;;;40.58;6.03;;;;;;;;;;5094349;28;20372;-73
2022/01/12 09:20:50;;;;;;;39.95;6.10;;;;;;;;;;5093986;28;20043;-72
2022/01/12 09:23:16;;;;;;;39.05;5.88;;;3.80;99.90;;;;;;5093607;28;20097;-73
2022/01/12 09:25:42;;;;;;;38.10;5.28;;;4.10;99.90;;;;;;5093905;28;20047;-72
2022/01/12 09:28:09;;;;;;;27.13;5.00;;;3.80;99.90;;;;;;5093203;28;20060;-72
2022/01/12 09:30:35;;;;;;;43.05;4.68;;;3.80;99.90;;;;;;5093905;28;20047;-72
2022/01/12 09:33:01;;;;;;;50.85;4.85;;;3.90;99.90;;;;;;5093673;28;20032;-72
2022/01/12 09:35:29;;;;;;;97.10;5.63;;;3.90;99.90;;;;;;5091201;28;20502;-75
2022/01/12 09:37:55;;;;;;;59.40;5.18;;;3.90;99.90;;;;;;5093651;28;20077;-77
2022/01/12 09:40:21;;;;;;;28.50;4.50;;;4.00;99.90;;;;;;5088817;28;20052;-80
2022/01/12 09:42:48;;;;;;;45.17;5.67;;;4.00;99.90;;;;;;5073309;28;20040;-82
2022/01/12 09:45:17;;;;;;;26.45;6.50;;;4.00;99.90;;;;;;5073062;28;20377;-76
2022/01/12 09:47:47;;;;;;;33.85;8.68;;;4.00;99.90;;;;;;5074311;28;20051;-75
2022/01/12 09:50:15;;;;;;;33.90;7.03;;;4.10;99.90;;;;;;5073208;28;20107;-74
2022/01/12 09:52:41;;;;;;;41.55;6.57;;;4.10;99.90;;;;;;5073222;28;20040;-76
2022/01/12 09:55:08;;;;;;;23.47;6.13;;;4.10;99.90;;;;;;5072908;28;20048;-75
2022/01/12 09:57:34;;;;;;;33.58;6.25;;;4.10;99.90;;;;;;5074093;28;20045;-75
2022/01/12 10:00:00;;;;;;;33.03;7.03;;;4.20;99.90;;;;;;5072779;28;20086;-75
2022/01/12 10:02:25;;;;;;;27.60;7.77;;;4.20;99.90;;;;;;5072797;28;20033;-75
2022/01/12 10:05:12;;;;;;;40.40;8.23;;;4.20;99.90;;;;;;5077613;28;20289;-74
2022/01/12 10:07:38;;;;;;;29.23;6.25;;;4.30;99.90;;;;;;5093333;28;20091;-76
2022/01/12 10:10:15;;;;;;;37.63;6.57;;;4.30;99.90;;;;;;5091882;28;20083;-76
2022/01/12 10:12:53;;;;;;;75.50;9.52;;;4.40;99.90;;;;;;5093254;28;20083;-78
2022/01/12 10:15:18;;;;;;;42.15;8.07;;;4.40;99.90;;;;;;5086910;28;20530;-76
2022/01/12 10:17:45;;;;;;;42.90;7.30;;;4.40;99.90;;;;;;5073104;28;20084;-77
2022/01/12 10:20:19;;;;;;;67.95;7.80;;;4.50;99.90;;;;;;5072580;28;20048;-77
2022/01/12 10:23:07;;;;;;;38.83;7.15;;;4.50;99.90;;;;;;5073093;28;20145;-76
2022/01/12 10:25:34;;;;;;;89.38;8.80;;;4.60;99.90;;;;;;5077192;28;20040;-79
2022/01/12 10:28:14;;;;;;;70.50;7.72;;;4.60;99.90;;;;;;5092598;28;20066;-77
2022/01/12 10:30:47;;;;;;;58.85;6.45;;;4.60;99.90;;;;;;5092968;28;20051;-72
2022/01/12 10:33:14;;;;;;;65.95;7.20;;;4.70;99.90;;;;;;5092655;28;20043;-72
2022/01/12 10:35:41;;;;;;;80.22;7.13;;;4.70;99.90;;;;;;5089408;28;20091;-77
2022/01/12 10:38:12;;;;;;;41.60;6.35;;;4.70;99.90;;;;;;5092470;28;20044;-79
2022/01/12 10:40:52;;;;;;;46.92;6.65;;;4.70;99.90;;;;;;5092683;28;20084;-76
2022/01/12 10:43:36;;;;;;;45.03;7.65;;;4.70;99.90;;;;;;5072440;28;20060;-78
2022/01/12 10:46:08;;;;;;;40.00;6.30;;;4.80;99.90;;;;;;5073934;28;20149;-76
2022/01/12 10:48:54;;;;;;;35.55;7.03;;;4.80;99.90;;;;;;5093056;28;20048;-78
2022/01/12 10:51:30;;;;;;;52.92;7.30;;;4.80;99.90;;;;;;5092221;28;20043;-78
2022/01/12 10:54:04;;;;;;;26.83;6.38;;;4.90;99.90;;;;;;5092672;28;20484;-76
2022/01/12 10:56:30;;;;;;;22.45;6.40;;;4.90;99.90;;;;;;5089704;28;20507;-76
2022/01/12 10:58:58;;;;;;;37.60;6.50;;;;;;;;;;5072532;28;20057;-74
2022/01/12 11:01:27;;;;;;;23.85;5.47;;;4.90;99.90;;;;;;5072283;28;20174;-75
2022/01/12 11:03:52;;;;;;;51.28;6.65;;;4.90;99.90;;;;;;5070987;28;20048;-75
2022/01/12 11:06:18;;;;;;;35.30;6.30;;;5.10;99.90;;;;;;5072307;28;20044;-74
2022/01/12 11:08:47;;;;;;;28.95;5.50;;;5.00;99.90;;;;;;5073429;28;20041;-73
2022/01/12 11:11:16;;;;;;;38.67;6.43;;;5.00;99.90;;;;;;5073159;28;20572;-73
2022/01/12 11:13:45;;;;;;;48.83;6.47;;;5.10;99.90;;;;;;5076148;28;20040;-76
2022/01/12 11:16:11;;;;;;;33.88;6.05;;;5.10;99.90;;;;;;5076104;28;20048;-78
2022/01/12 11:18:38;;;;;;;26.52;5.32;;;;;;;;;;5087079;28;20056;-76
2022/01/12 11:21:07;;;;;;;23.98;5.05;;;;;;;;;;5096344;28;20123;-76
2022/01/12 11:23:39;;;;;;;28.38;5.80;;;5.20;99.90;;;;;;5095921;28;20407;-77
2022/01/12 11:26:24;;;;;;;30.70;5.93;;;5.20;99.90;;;;;;5096263;28;20063;-76
2022/01/12 11:28:52;;;;;;;49.67;6.43;;;5.20;99.90;;;;;;5094029;28;20148;-75
2022/01/12 11:31:24;;;;;;;33.47;6.13;;;5.20;99.90;;;;;;5095680;28;20043;-75
2022/01/12 11:33:50;;;;;;;29.55;6.45;;;5.30;99.90;;;;;;5094290;28;20040;-75
2022/01/12 11:36:16;;;;;;;42.33;6.97;;;5.20;99.90;;;;;;5095744;28;20040;-74
2022/01/12 11:38:47;;;;;;;25.10;6.10;;;5.30;99.90;;;;;;5092080;28;20048;-73
2022/01/12 11:41:48;;;;;;;43.15;6.47;;;5.30;99.90;;;;;;5075764;28;20052;-70
2022/01/12 11:44:20;;;;;;;38.42;6.95;;;5.30;99.90;;;;;;5053091;28;20096;-70
2022/01/12 11:46:57;;;;;;;38.08;6.75;;;5.30;99.90;;;;;;5075546;28;20118;-70
2022/01/12 11:49:43;;;;;;;42.63;7.38;;;5.30;99.90;;;;;;5075230;28;20048;-69
2022/01/12 11:52:25;;;;;;;16.23;6.05;;;5.40;99.90;;;;;;5075709;28;20091;-69
2022/01/12 11:54:53;;;;;;;37.85;7.57;;;5.40;99.90;;;;;;5075654;28;20052;-70
2022/01/12 11:57:34;;;;;;;32.40;7.80;;;5.40;99.90;;;;;;5075182;28;20132;-69
2022/01/12 12:00:10;;;;;;;27.73;7.70;;;;;;;;;;5075544;28;20101;-72
2022/01/12 12:02:38;;;;;;;22.85;7.60;;;;;;;;;;5075014;28;20047;-69
2022/01/12 12:05:11;;;;;;;37.55;9.20;;;;;;;;;;5075364;28;20051;-69
2022/01/12 12:07:44;;;;;;;33.67;9.60;;;;;;;;;;5074868;28;20246;-70
2022/01/12 12:10:11;;;;;;;29.48;10.20;;;;;;;;;;5074958;28;20080;-70
2022/01/12 12:12:38;;;;;;;30.38;9.43;;;;;;;;;;5074693;28;20048;-70
2022/01/12 12:15:05;;;;;;;34.53;10.50;;;;;;;;;;5075031;28;20131;-70
2022/01/12 12:17:33;;;;;;;36.60;9.77;;;5.80;99.90;;;;;;5074589;28;20045;-70
2022/01/12 12:20:00;;;;;;;25.75;9.75;;;5.80;99.90;;;;;;5074838;28;20477;-70
2022/01/12 12:22:29;;;;;;;33.92;11.18;;;5.80;99.90;;;;;;5074255;28;20091;-71
2022/01/12 12:25:00;;;;;;;22.88;9.68;;;;;;;;;;5073922;28;20080;-70
2022/01/12 12:27:27;;;;;;;37.13;11.05;;;;;;;;;;5074330;28;20189;-71
2022/01/12 12:29:53;;;;;;;31.65;11.73;;;;;;;;;;5074820;28;20056;-70
2022/01/12 12:32:20;;;;;;;31.45;10.85;;;;;;;;;;5074630;28;20045;-69
2022/01/12 12:34:47;;;;;;;31.45;12.07;;;;;;;;;;5074533;28;20537;-70
2022/01/12 12:37:15;;;;;;;42.35;13.38;;;;;;;;;;5074501;28;20119;-70
2022/01/12 12:39:43;;;;;;;32.00;11.55;;;;;;;;;;5073880;28;20820;-71
2022/01/12 12:42:19;;;;;;;29.30;11.75;;;;;;;;;;5074347;28;20044;-69
2022/01/12 12:44:46;;;;;;;34.42;12.75;;;;;;;;;;5074030;28;20105;-69
2022/01/12 12:47:17;;;;;;;48.50;15.02;;;;;;;;;;5074346;28;20083;-69
2022/01/12 12:49:47;;;;;;;37.65;13.15;;;;;;;;;;5073961;28;20544;-69
2022/01/12 12:52:21;;;;;;;36.70;13.25;;;;;;;;;;5074300;28;20481;-73
2022/01/12 12:54:47;;;;;;;38.83;14.27;;;6.40;99.90;;;;;;5074002;28;20048;-74
2022/01/12 12:57:20;;;;;;;38.50;14.17;;;;;;;;;;5074195;28;20090;-75
2022/01/12 13:00:04;;;;;;;40.00;15.00;;;6.10;99.90;;;;;;5073955;28;20468;-75
2022/01/12 13:02:38;;;;;;;45.40;14.02;;;6.20;99.90;;;;;;5073930;28;20044;-73
2022/01/12 13:05:06;;;;;;;35.67;13.90;;;6.10;99.90;;;;;;5074112;28;20392;-74
2022/01/12 13:07:37;;;;;;;41.25;14.73;;;6.10;99.90;;;;;;5072691;28;20056;-74
2022/01/12 13:10:04;;;;;;;57.35;16.45;;;6.10;99.90;;;;;;5089343;28;20049;-75
2022/01/12 13:12:44;;;;;;;46.88;15.98;;;6.10;99.90;;;;;;5073608;28;20051;-74
2022/01/12 13:15:16;;;;;;;50.10;16.67;;;6.20;99.90;;;;;;5073155;28;20400;-76
2022/01/12 13:17:41;;;;;;;45.08;16.90;;;6.10;99.90;;;;;;5073107;28;20127;-72
2022/01/12 13:22:49;;;;;;;55.35;16.55;;;6.20;99.90;;;;;;5073447;28;20162;-73
2022/01/12 13:25:17;;;;;;;73.10;16.92;;;6.20;99.90;;;;;;5073732;28;20102;-72
2022/01/12 13:27:47;;;;;;;73.47;17.63;;;6.20;99.90;;;;;;5072892;28;20052;-73
2022/01/12 13:30:31;;;;;;;41.38;13.70;;;6.10;99.90;;;;;;5073534;28;20047;-77
2022/01/12 13:32:59;;;;;;;47.50;13.98;;;6.20;99.90;;;;;;5073646;28;20044;-78
2022/01/12 13:35:35;;;;;;;69.78;16.13;;;6.20;99.90;;;;;;5073060;28;20066;-77
2022/01/12 13:38:04;;;;;;;35.00;12.10;;;6.20;99.90;;;;;;5073486;28;20088;-77
2022/01/12 13:40:35;;;;;;;38.45;13.30;;;6.20;99.90;;;;;;5073057;28;20063;-78
2022/01/12 13:43:02;;;;;;;74.32;14.02;;;6.20;99.90;;;;;;5073390;28;20123;-76
2022/01/12 13:45:40;;;;;;;106.05;13.25;;;6.20;99.90;;;;;;5073312;28;20049;-76
2022/01/12 13:48:13;;;;;;;58.08;11.20;;;6.10;99.90;;;;;;5072454;28;20048;-75
2022/01/12 13:50:41;;;;;;;96.10;12.70;;;6.10;99.90;;;;;;5073011;28;20097;-75
2022/01/12 13:53:07;;;;;;;59.28;11.93;;;6.10;99.90;;;;;;5073237;28;20408;-75
2022/01/12 13:55:34;;;;;;;66.75;11.20;;;6.00;99.90;;;;;;5072915;28;20046;-71
2022/01/12 13:58:10;;;;;;;57.70;11.80;;;6.00;99.90;;;;;;5073038;28;20040;-70
2022/01/12 14:00:37;;;;;;;86.38;13.80;;;6.00;99.90;;;;;;5073149;28;20097;-72
2022/01/12 14:03:15;;;;;;;53.00;12.13;;;6.00;99.90;;;;;;5073015;28;20109;-73
2022/01/12 14:05:41;;;;;;;45.80;9.70;;;6.00;99.90;;;;;;5071858;28;20049;-73
2022/01/12 14:08:14;;;;;;;40.47;11.75;;;6.00;99.90;;;;;;5072973;28;20492;-73
2022/01/12 14:10:45;;;;;;;70.28;11.23;;;6.00;99.90;;;;;;5087648;28;20044;-73
2022/01/12 14:13:11;;;;;;;55.10;10.23;;;5.90;99.90;;;;;;5072007;28;20140;-73
2022/01/12 14:15:37;;;;;;;75.55;10.50;;;5.90;99.90;;;;;;5071470;28;20040;-73
2022/01/12 14:18:05;;;;;;;42.27;10.07;;;5.90;99.90;;;;;;5072267;28;20503;-73